createdAt,value
2023-04-22T00:02:29.465Z,14.00
2023-04-22T00:05:07.214Z,14.00
2023-04-22T00:07:43.123Z,14.00
2023-04-22T00:10:18.070Z,14.00
2023-04-22T00:12:52.954Z,13.90
2023-04-22T00:15:27.912Z,13.90
2023-04-22T00:18:02.891Z,13.90
2023-04-22T00:20:39.227Z,13.80
2023-04-22T00:23:14.219Z,13.80
2023-04-22T00:25:49.068Z,13.80
2023-04-22T00:28:23.940Z,13.70
2023-04-22T00:30:58.956Z,13.70
2023-04-22T00:33:33.871Z,13.70
2023-04-22T00:36:08.830Z,13.60
2023-04-22T00:38:49.885Z,13.60
2023-04-22T00:41:25.175Z,13.60
2023-04-22T00:44:01.257Z,13.60
2023-04-22T00:46:38.685Z,13.50
2023-04-22T00:49:14.589Z,13.50
2023-04-22T00:51:51.082Z,13.50
2023-04-22T00:54:26.274Z,13.50
2023-04-22T00:57:02.986Z,13.40
2023-04-22T00:59:38.501Z,13.40
2023-04-22T01:02:14.528Z,13.40
2023-04-22T01:04:49.655Z,13.40
2023-04-22T01:07:24.604Z,13.40
2023-04-22T01:09:59.577Z,13.40
2023-04-22T01:12:34.699Z,13.30
2023-04-22T01:15:11.349Z,13.30
2023-04-22T01:17:46.508Z,13.30
2023-04-22T01:20:23.355Z,13.30
2023-04-22T01:23:04.359Z,13.30
2023-04-22T01:25:39.313Z,13.20
2023-04-22T01:28:15.636Z,13.20
2023-04-22T01:30:50.692Z,13.20
2023-04-22T01:33:25.790Z,13.10
2023-04-22T01:36:00.919Z,13.10
2023-04-22T01:38:35.870Z,13.10
2023-04-22T01:41:14.456Z,13.10
2023-04-22T01:43:53.818Z,13.10
2023-04-22T01:46:28.814Z,13.10
2023-04-22T01:49:03.740Z,13.00
2023-04-22T01:51:38.751Z,13.00
2023-04-22T01:54:14.593Z,13.00
2023-04-22T01:56:55.505Z,12.90
2023-04-22T01:59:30.728Z,12.90
2023-04-22T02:02:06.258Z,12.90
2023-04-22T02:04:41.198Z,12.90
2023-04-22T02:07:16.139Z,12.80
2023-04-22T02:09:51.581Z,12.80
2023-04-22T02:12:26.541Z,12.80
2023-04-22T02:15:01.396Z,12.70
2023-04-22T02:17:36.376Z,12.70
2023-04-22T02:20:12.312Z,12.70
2023-04-22T02:22:47.777Z,12.60
2023-04-22T02:25:22.691Z,12.60
2023-04-22T02:27:58.387Z,12.60
2023-04-22T02:30:33.625Z,12.60
2023-04-22T02:33:08.724Z,12.50
2023-04-22T02:35:43.651Z,12.50
2023-04-22T02:38:24.297Z,12.50
2023-04-22T02:40:59.201Z,12.40
2023-04-22T02:43:34.217Z,12.40
2023-04-22T02:46:13.013Z,12.40
2023-04-22T02:48:49.436Z,12.40
2023-04-22T02:51:24.308Z,12.40
2023-04-22T02:54:00.212Z,12.30
2023-04-22T02:56:35.540Z,12.30
2023-04-22T02:59:10.405Z,12.30
2023-04-22T03:01:45.440Z,12.20
2023-04-22T03:04:32.505Z,12.20
2023-04-22T03:07:07.463Z,12.20
2023-04-22T03:09:43.064Z,12.20
2023-04-22T03:12:18.128Z,12.20
2023-04-22T03:14:54.339Z,12.20
2023-04-22T03:17:31.677Z,12.20
2023-04-22T03:20:10.034Z,12.20
2023-04-22T03:22:44.998Z,12.20
2023-04-22T03:25:21.793Z,12.20
2023-04-22T03:28:04.187Z,12.20
2023-04-22T03:30:39.158Z,12.20
2023-04-22T03:33:14.163Z,12.10
2023-04-22T03:35:55.225Z,12.10
2023-04-22T03:38:30.729Z,12.00
2023-04-22T03:41:05.979Z,12.00
2023-04-22T03:43:47.927Z,11.90
2023-04-22T03:46:22.879Z,11.90
2023-04-22T03:49:08.351Z,11.80
2023-04-22T03:51:43.887Z,11.80
2023-04-22T03:54:23.360Z,11.70
2023-04-22T03:57:00.804Z,11.70
2023-04-22T03:59:35.807Z,11.70
2023-04-22T04:02:11.222Z,11.60
2023-04-22T04:04:46.621Z,11.60
2023-04-22T04:07:22.902Z,11.60
2023-04-22T04:09:59.193Z,11.60
2023-04-22T04:12:35.171Z,11.60
2023-04-22T04:15:11.805Z,11.50
2023-04-22T04:17:48.506Z,11.50
2023-04-22T04:20:25.419Z,11.50
2023-04-22T04:23:00.700Z,11.50
2023-04-22T04:25:39.048Z,11.50
2023-04-22T04:28:19.118Z,11.40
2023-04-22T04:30:54.325Z,11.40
2023-04-22T04:33:34.310Z,11.40
2023-04-22T04:36:10.665Z,11.30
2023-04-22T04:38:47.753Z,11.30
2023-04-22T04:41:23.404Z,11.30
2023-04-22T04:44:00.553Z,11.30
2023-04-22T04:46:41.239Z,11.30
2023-04-22T04:49:17.286Z,11.30
2023-04-22T04:52:01.865Z,11.40
2023-04-22T04:54:37.176Z,11.40
2023-04-22T04:57:12.148Z,11.40
2023-04-22T04:59:48.283Z,11.50
2023-04-22T05:02:23.784Z,11.50
2023-04-22T05:04:59.275Z,11.50
2023-04-22T05:07:35.626Z,11.60
2023-04-22T05:10:11.500Z,11.60
2023-04-22T05:12:47.850Z,11.60
2023-04-22T05:15:28.546Z,11.60
2023-04-22T05:18:03.615Z,11.60
2023-04-22T05:20:39.224Z,11.60
2023-04-22T05:23:14.406Z,11.60
2023-04-22T05:25:50.810Z,11.70
2023-04-22T05:28:27.384Z,11.60
2023-04-22T05:31:05.298Z,11.70
2023-04-22T05:33:40.263Z,11.70
2023-04-22T05:36:15.390Z,11.60
2023-04-22T05:38:52.003Z,11.60
2023-04-22T05:41:27.460Z,11.70
2023-04-22T05:44:04.720Z,11.70
2023-04-22T05:46:39.768Z,11.70
2023-04-22T05:49:14.684Z,11.70
2023-04-22T05:52:21.952Z,11.70
2023-04-22T05:55:08.638Z,11.80
2023-04-22T05:57:43.524Z,11.80
2023-04-22T06:00:36.326Z,11.90
2023-04-22T06:03:31.593Z,12.00
2023-04-22T06:06:07.236Z,12.20
2023-04-22T06:08:42.376Z,12.30
2023-04-22T06:11:18.756Z,12.40
2023-04-22T06:13:53.737Z,12.50
2023-04-22T06:16:30.001Z,12.50
2023-04-22T06:19:05.990Z,12.70
2023-04-22T06:21:42.539Z,12.80
2023-04-22T06:24:17.739Z,13.00
2023-04-22T06:26:52.742Z,13.00
2023-04-22T06:29:28.023Z,13.10
2023-04-22T06:32:03.575Z,13.20
2023-04-22T06:34:39.218Z,13.30
2023-04-22T06:37:14.308Z,13.50
2023-04-22T06:39:49.306Z,13.50
2023-04-22T06:42:42.926Z,13.60
2023-04-22T06:45:48.691Z,13.70
2023-04-22T06:48:46.269Z,13.80
2023-04-22T06:51:28.287Z,13.90
2023-04-22T06:54:04.160Z,13.90
2023-04-22T06:56:39.359Z,14.00
2023-04-22T06:59:14.367Z,13.90
2023-04-22T07:01:49.256Z,13.90
2023-04-22T07:04:24.907Z,14.00
2023-04-22T07:06:59.971Z,14.10
2023-04-22T07:09:36.123Z,14.30
2023-04-22T07:12:11.275Z,14.30
2023-04-22T07:14:49.637Z,14.30
2023-04-22T07:17:24.580Z,14.40
2023-04-22T07:19:59.627Z,14.50
2023-04-22T07:22:34.539Z,14.50
2023-04-22T07:25:10.131Z,14.60
2023-04-22T07:27:45.187Z,14.70
2023-04-22T07:30:20.231Z,14.70
2023-04-22T07:32:55.489Z,14.80
2023-04-22T07:35:30.874Z,15.00
2023-04-22T07:38:07.295Z,15.20
2023-04-22T07:40:42.873Z,15.50
2023-04-22T07:43:17.881Z,15.60
2023-04-22T07:45:52.868Z,15.80
2023-04-22T07:48:27.896Z,16.10
2023-04-22T07:51:03.209Z,16.20
2023-04-22T07:53:38.088Z,16.40
2023-04-22T07:56:13.666Z,16.50
2023-04-22T07:58:48.524Z,16.60
2023-04-22T08:01:23.432Z,16.80
2023-04-22T08:03:58.948Z,16.80
2023-04-22T08:06:34.276Z,17.00
2023-04-22T08:09:10.493Z,17.10
2023-04-22T08:11:45.506Z,17.30
2023-04-22T08:14:20.371Z,17.30
2023-04-22T08:16:55.675Z,17.20
2023-04-22T08:19:30.965Z,17.30
2023-04-22T08:22:06.060Z,17.10
2023-04-22T08:24:41.226Z,17.10
2023-04-22T08:27:16.137Z,17.00
2023-04-22T08:29:51.282Z,16.80
2023-04-22T08:32:26.559Z,16.80
2023-04-22T08:35:04.983Z,16.70
2023-04-22T08:37:41.703Z,16.70
2023-04-22T08:40:16.675Z,16.80
2023-04-22T08:42:52.590Z,16.80
2023-04-22T08:45:27.595Z,16.90
2023-04-22T08:48:03.180Z,16.90
2023-04-22T08:50:41.319Z,17.00
2023-04-22T08:53:16.274Z,17.00
2023-04-22T08:55:52.096Z,17.10
2023-04-22T08:58:28.972Z,17.20
2023-04-22T09:01:03.978Z,17.40
2023-04-22T09:03:42.621Z,17.50
2023-04-22T09:06:21.053Z,17.60
2023-04-22T09:08:56.891Z,17.80
2023-04-22T09:11:33.601Z,17.90
2023-04-22T09:14:08.528Z,17.90
2023-04-22T09:16:48.214Z,18.10
2023-04-22T09:19:25.642Z,18.40
2023-04-22T09:22:00.801Z,18.70
2023-04-22T09:24:36.169Z,18.90
2023-04-22T09:27:11.317Z,19.20
2023-04-22T09:29:50.783Z,19.40
2023-04-22T09:32:26.172Z,19.40
2023-04-22T09:35:01.524Z,19.50
2023-04-22T09:37:48.567Z,19.60
2023-04-22T09:40:25.136Z,19.60
2023-04-22T09:43:07.232Z,19.60
2023-04-22T09:45:43.089Z,19.50
2023-04-22T09:48:19.569Z,19.50
2023-04-22T09:50:54.454Z,19.50
2023-04-22T09:53:29.896Z,19.70
2023-04-22T09:56:04.993Z,19.90
2023-04-22T09:58:40.534Z,20.20
2023-04-22T10:01:16.008Z,20.40
2023-04-22T10:03:51.157Z,20.70
2023-04-22T10:06:26.089Z,20.70
2023-04-22T10:09:01.601Z,20.80
2023-04-22T10:11:37.561Z,20.70
2023-04-22T10:14:14.170Z,20.60
2023-04-22T10:16:53.158Z,20.50
2023-04-22T10:19:29.465Z,20.70
2023-04-22T10:22:05.711Z,20.80
2023-04-22T10:24:42.045Z,21.00
2023-04-22T10:27:22.239Z,21.30
2023-04-22T10:29:57.718Z,21.70
2023-04-22T10:32:33.233Z,21.80
2023-04-22T10:35:12.527Z,21.80
2023-04-22T10:37:48.993Z,21.90
2023-04-22T10:40:23.954Z,21.90
2023-04-22T10:43:03.381Z,21.70
2023-04-22T10:45:38.569Z,21.50
2023-04-22T10:48:13.537Z,21.80
2023-04-22T10:50:48.470Z,22.00
2023-04-22T10:53:37.187Z,22.10
2023-04-22T10:56:18.457Z,22.30
2023-04-22T10:58:56.471Z,22.50
2023-04-22T11:01:41.366Z,22.80
2023-04-22T11:04:23.162Z,23.00
2023-04-22T11:07:31.967Z,23.20
2023-04-22T11:10:07.110Z,23.30
2023-04-22T11:12:44.831Z,23.50
2023-04-22T11:15:22.265Z,23.70
2023-04-22T11:17:57.504Z,23.80
2023-04-22T11:20:32.532Z,24.00
2023-04-22T11:23:07.525Z,24.10
2023-04-22T11:25:42.421Z,24.10
2023-04-22T11:28:22.775Z,24.10
2023-04-22T11:31:06.665Z,24.50
2023-04-22T11:33:41.725Z,24.50
2023-04-22T11:36:19.396Z,24.60
2023-04-22T11:38:57.598Z,24.40
2023-04-22T11:41:32.581Z,24.20
2023-04-22T11:44:07.482Z,24.30
2023-04-22T11:46:44.647Z,24.40
2023-04-22T11:49:19.933Z,24.40
2023-04-22T11:51:56.643Z,24.50
2023-04-22T11:54:37.492Z,25.00
2023-04-22T11:57:15.662Z,25.10
2023-04-22T11:59:59.548Z,25.10
2023-04-22T12:02:34.504Z,25.10
2023-04-22T12:05:12.404Z,25.10
2023-04-22T12:07:50.262Z,25.00
2023-04-22T12:10:25.159Z,25.20
2023-04-22T12:13:02.031Z,25.30
2023-04-22T12:15:43.953Z,25.50
2023-04-22T12:18:30.123Z,25.40
2023-04-22T12:21:12.705Z,25.40
2023-04-22T12:23:51.003Z,25.50
2023-04-22T12:26:27.627Z,25.50
2023-04-22T12:29:02.760Z,25.50
2023-04-22T12:31:38.694Z,25.60
2023-04-22T12:34:13.618Z,25.30
2023-04-22T12:36:48.682Z,25.10
2023-04-22T12:39:23.628Z,25.40
2023-04-22T12:41:58.603Z,25.60
2023-04-22T12:44:34.060Z,25.60
2023-04-22T12:47:09.966Z,25.30
2023-04-22T12:49:47.268Z,25.10
2023-04-22T12:52:22.400Z,25.00
2023-04-22T12:54:57.320Z,25.00
2023-04-22T12:57:32.693Z,25.00
2023-04-22T13:00:14.244Z,25.00
2023-04-22T13:02:49.795Z,24.90
2023-04-22T13:05:25.700Z,24.40
2023-04-22T13:08:07.242Z,24.30
2023-04-22T13:10:42.886Z,24.40
2023-04-22T13:13:19.403Z,24.50
2023-04-22T13:15:54.951Z,24.20
2023-04-22T13:18:29.867Z,24.30
2023-04-22T13:21:06.253Z,24.00
2023-04-22T13:23:41.148Z,23.80
2023-04-22T13:26:16.240Z,23.90
2023-04-22T13:28:51.109Z,24.00
2023-04-22T13:31:26.024Z,23.80
2023-04-22T13:34:01.009Z,23.90
2023-04-22T13:36:36.143Z,23.80
2023-04-22T13:39:11.453Z,23.60
2023-04-22T13:41:46.406Z,23.60
2023-04-22T13:44:21.359Z,23.50
2023-04-22T13:46:56.547Z,23.60
2023-04-22T13:49:31.809Z,23.60
2023-04-22T13:52:06.708Z,23.60
2023-04-22T13:54:41.652Z,23.40
2023-04-22T13:57:16.559Z,23.20
2023-04-22T13:59:51.448Z,23.20
2023-04-22T14:02:26.486Z,23.20
2023-04-22T14:05:01.536Z,23.40
2023-04-22T14:07:37.031Z,23.50
2023-04-22T14:10:14.280Z,23.50
2023-04-22T14:12:50.511Z,23.60
2023-04-22T14:15:26.641Z,23.60
2023-04-22T14:18:01.801Z,23.60
2023-04-22T14:20:37.480Z,23.80
2023-04-22T14:23:12.480Z,23.90
2023-04-22T14:25:48.713Z,24.10
2023-04-22T14:28:23.746Z,23.90
2023-04-22T14:30:59.297Z,23.80
2023-04-22T14:33:34.251Z,23.80
2023-04-22T14:36:09.290Z,23.80
2023-04-22T14:38:44.424Z,23.70
2023-04-22T14:41:23.736Z,23.70
2023-04-22T14:43:58.768Z,23.70
2023-04-22T14:46:33.842Z,23.30
2023-04-22T14:49:08.888Z,23.30
2023-04-22T14:51:43.874Z,23.60
2023-04-22T14:54:19.019Z,23.80
2023-04-22T14:56:55.911Z,24.10
2023-04-22T14:59:31.147Z,24.20
2023-04-22T15:02:06.430Z,24.20
2023-04-22T15:04:43.610Z,24.50
2023-04-22T15:07:18.600Z,24.20
2023-04-22T15:09:55.764Z,23.70
2023-04-22T15:12:30.725Z,23.50
2023-04-22T15:15:06.501Z,23.20
2023-04-22T15:17:41.974Z,23.00
2023-04-22T15:20:16.896Z,22.90
2023-04-22T15:22:52.126Z,22.80
2023-04-22T15:25:27.400Z,22.60
2023-04-22T15:28:02.674Z,22.50
2023-04-22T15:30:37.577Z,22.60
2023-04-22T15:33:12.536Z,22.70
2023-04-22T15:35:49.466Z,22.60
2023-04-22T15:38:24.717Z,22.60
2023-04-22T15:40:59.679Z,22.60
2023-04-22T15:43:34.602Z,22.50
2023-04-22T15:46:09.705Z,22.50
2023-04-22T15:48:47.275Z,22.50
2023-04-22T15:51:22.816Z,22.60
2023-04-22T15:53:58.454Z,22.70
2023-04-22T15:56:34.539Z,22.70
2023-04-22T15:59:09.580Z,22.50
2023-04-22T16:01:46.264Z,22.40
2023-04-22T16:04:21.810Z,22.30
2023-04-22T16:06:59.667Z,22.20
2023-04-22T16:09:34.556Z,22.20
2023-04-22T16:12:09.417Z,22.10
2023-04-22T16:14:45.393Z,22.10
2023-04-22T16:17:20.936Z,22.20
2023-04-22T16:19:56.017Z,22.10
2023-04-22T16:22:30.884Z,22.20
2023-04-22T16:25:07.697Z,22.10
2023-04-22T16:27:42.576Z,22.10
2023-04-22T16:30:17.466Z,22.10
2023-04-22T16:32:52.427Z,22.20
2023-04-22T16:35:27.318Z,22.20
2023-04-22T16:38:02.617Z,22.20
2023-04-22T16:40:39.693Z,22.20
2023-04-22T16:43:14.623Z,22.00
2023-04-22T16:45:49.640Z,21.80
2023-04-22T16:48:24.596Z,21.70
2023-04-22T16:51:00.433Z,21.70
2023-04-22T16:53:35.968Z,21.70
2023-04-22T16:56:11.478Z,21.60
2023-04-22T16:58:46.369Z,21.60
2023-04-22T17:01:21.506Z,21.70
2023-04-22T17:03:57.693Z,21.60
2023-04-22T17:06:33.484Z,21.50
2023-04-22T17:09:09.608Z,21.50
2023-04-22T17:11:44.987Z,21.50
2023-04-22T17:14:20.166Z,21.50
2023-04-22T17:16:56.111Z,21.30
2023-04-22T17:19:31.119Z,21.20
2023-04-22T17:22:06.066Z,21.20
2023-04-22T17:24:42.153Z,21.10
2023-04-22T17:27:17.331Z,21.10
2023-04-22T17:29:52.267Z,21.00
2023-04-22T17:32:27.263Z,21.00
2023-04-22T17:35:03.412Z,20.90
2023-04-22T17:37:38.437Z,20.90
2023-04-22T17:40:14.562Z,20.90
2023-04-22T17:42:49.606Z,20.90
2023-04-22T17:45:24.524Z,20.80
2023-04-22T17:47:59.497Z,20.60
2023-04-22T17:50:35.461Z,20.50
2023-04-22T17:53:11.365Z,20.50
2023-04-22T17:55:46.455Z,20.40
2023-04-22T17:58:22.546Z,20.30
2023-04-22T18:01:00.301Z,20.20
2023-04-22T18:03:36.675Z,20.20
2023-04-22T18:06:11.767Z,20.10
2023-04-22T18:08:47.222Z,20.00
2023-04-22T18:11:22.916Z,20.00
2023-04-22T18:13:57.901Z,19.80
2023-04-22T18:16:33.903Z,19.70
2023-04-22T18:19:10.770Z,19.60
2023-04-22T18:21:59.161Z,19.50
2023-04-22T18:24:36.338Z,19.40
2023-04-22T18:27:12.303Z,19.30
2023-04-22T18:29:47.925Z,19.20
2023-04-22T18:32:25.041Z,19.10
2023-04-22T18:35:00.140Z,19.00
2023-04-22T18:37:35.273Z,18.90
2023-04-22T18:40:10.754Z,18.90
2023-04-22T18:42:47.446Z,19.00
2023-04-22T18:45:23.089Z,19.00
2023-04-22T18:47:58.975Z,18.80
2023-04-22T18:50:33.882Z,18.80
2023-04-22T18:53:10.035Z,18.60
2023-04-22T18:55:45.071Z,18.60
2023-04-22T18:58:23.205Z,18.50
2023-04-22T19:00:58.142Z,18.40
2023-04-22T19:03:33.276Z,18.30
2023-04-22T19:06:08.544Z,18.20
2023-04-22T19:08:43.408Z,18.20
2023-04-22T19:11:19.536Z,18.00
2023-04-22T19:13:54.397Z,17.90
2023-04-22T19:16:30.251Z,17.70
2023-04-22T19:19:06.676Z,17.70
2023-04-22T19:21:42.068Z,17.60
2023-04-22T19:24:17.648Z,17.60
2023-04-22T19:26:54.455Z,17.60
2023-04-22T19:29:29.809Z,17.60
2023-04-22T19:32:05.374Z,17.50
2023-04-22T19:34:40.425Z,17.50
2023-04-22T19:37:15.989Z,17.50
2023-04-22T19:39:50.981Z,17.40
2023-04-22T19:42:27.734Z,17.50
2023-04-22T19:45:02.595Z,17.50
2023-04-22T19:47:40.981Z,17.40
2023-04-22T19:50:16.661Z,17.40
2023-04-22T19:53:03.292Z,17.40
2023-04-22T19:55:38.760Z,17.30
2023-04-22T19:58:14.696Z,17.30
2023-04-22T20:00:50.692Z,17.30
2023-04-22T20:03:27.091Z,17.30
2023-04-22T20:06:02.498Z,17.30
2023-04-22T20:08:41.796Z,17.30
2023-04-22T20:11:17.059Z,17.30
2023-04-22T20:13:52.626Z,17.20
2023-04-22T20:16:27.986Z,17.20
2023-04-22T20:19:03.309Z,17.20
2023-04-22T20:21:39.998Z,17.20
2023-04-22T20:24:19.756Z,17.10
2023-04-22T20:26:57.154Z,17.10
2023-04-22T20:29:32.694Z,17.10
2023-04-22T20:32:09.427Z,17.10
2023-04-22T20:34:45.160Z,17.10
2023-04-22T20:37:21.543Z,17.00
2023-04-22T20:39:57.241Z,17.00
2023-04-22T20:42:36.819Z,17.00
2023-04-22T20:45:15.452Z,17.00
2023-04-22T20:47:51.482Z,16.90
2023-04-22T20:50:32.994Z,16.90
2023-04-22T20:53:07.931Z,16.90
2023-04-22T20:55:42.876Z,16.90
2023-04-22T20:58:17.785Z,16.80
2023-04-22T21:00:52.783Z,16.80
2023-04-22T21:03:28.124Z,16.80
2023-04-22T21:06:03.861Z,16.80
2023-04-22T21:08:40.876Z,16.70
2023-04-22T21:11:16.605Z,16.70
2023-04-22T21:13:52.639Z,16.70
2023-04-22T21:16:30.646Z,16.70
2023-04-22T21:19:07.906Z,16.60
2023-04-22T21:21:43.611Z,16.60
2023-04-22T21:24:19.644Z,16.60
2023-04-22T21:26:55.158Z,16.60
2023-04-22T21:29:30.400Z,16.60
2023-04-22T21:32:09.420Z,16.50
2023-04-22T21:34:45.334Z,16.50
2023-04-22T21:37:20.835Z,16.50
2023-04-22T21:39:56.735Z,16.50
2023-04-22T21:42:31.628Z,16.50
2023-04-22T21:45:07.317Z,16.50
2023-04-22T21:47:42.679Z,16.40
2023-04-22T21:50:19.586Z,16.40
2023-04-22T21:52:55.840Z,16.30
2023-04-22T21:55:30.758Z,16.30
2023-04-22T21:58:05.616Z,16.30
2023-04-22T22:00:40.481Z,16.20
2023-04-22T22:03:15.425Z,16.20
2023-04-22T22:05:50.391Z,16.20
2023-04-22T22:08:25.534Z,16.20
2023-04-22T22:11:00.436Z,16.20
2023-04-22T22:13:35.341Z,16.20
2023-04-22T22:16:10.355Z,16.20
2023-04-22T22:18:49.972Z,16.20
2023-04-22T22:21:25.153Z,16.20
2023-04-22T22:24:00.142Z,16.20
2023-04-22T22:26:36.468Z,16.10
2023-04-22T22:29:15.696Z,16.10
2023-04-22T22:31:50.770Z,16.10
2023-04-22T22:34:25.735Z,16.10
2023-04-22T22:37:01.064Z,16.00
2023-04-22T22:39:36.230Z,16.00
2023-04-22T22:42:11.152Z,16.00
2023-04-22T22:44:46.061Z,16.00
2023-04-22T22:47:21.013Z,16.00
2023-04-22T22:49:55.900Z,16.00
2023-04-22T22:52:32.007Z,16.00
2023-04-22T22:55:07.376Z,16.00
2023-04-22T22:57:42.335Z,15.90
2023-04-22T23:00:17.532Z,16.00
2023-04-22T23:02:52.616Z,15.90
2023-04-22T23:05:27.990Z,15.90
2023-04-22T23:08:02.864Z,15.90
2023-04-22T23:10:37.760Z,15.80
2023-04-22T23:13:12.652Z,15.80
2023-04-22T23:15:47.522Z,15.80
2023-04-22T23:18:22.561Z,15.80
2023-04-22T23:21:01.165Z,15.80
2023-04-22T23:23:36.952Z,15.80
2023-04-22T23:26:12.267Z,15.70
2023-04-22T23:28:47.586Z,15.70
2023-04-22T23:31:24.213Z,15.70
2023-04-22T23:34:02.900Z,15.70
2023-04-22T23:36:38.195Z,15.70
2023-04-22T23:39:13.151Z,15.70
2023-04-22T23:41:48.031Z,15.70
2023-04-22T23:44:23.126Z,15.70
2023-04-22T23:46:58.085Z,15.60
2023-04-22T23:49:33.062Z,15.70
2023-04-22T23:52:08.015Z,15.70
2023-04-22T23:54:44.688Z,15.70
2023-04-22T23:57:20.326Z,15.60
2023-04-22T23:59:55.654Z,15.50
